sensor_id;sensor_type;location;lat;lon;timestamp;P1;durP1;ratioP1;P2;durP2;ratioP2
12072;SDS011;6098;49.004;8.372;2023-05-16T00:02:15;14.04;;;12.49;;
12072;SDS011;6098;49.004;8.372;2023-05-16T00:17:07;13.81;;;12.37;;
12072;SDS011;6098;49.004;8.372;2023-05-16T00:31:59;16.16;;;12.91;;
12072;SDS011;6098;49.004;8.372;2023-05-16T00:46:52;16.28;;;14.42;;
12072;SDS011;6098;49.004;8.372;2023-05-16T01:01:46;19.46;;;15.12;;
12072;SDS011;6098;49.004;8.372;2023-05-16T01:32:16;24.52;;;18.40;;
12072;SDS011;6098;49.004;8.372;2023-05-16T01:47:08;30.16;;;19.44;;
12072;SDS011;6098;49.004;8.372;2023-05-16T02:01:59;25.50;;;18.52;;
12072;SDS011;6098;49.004;8.372;2023-05-16T02:16:51;28.64;;;19.08;;
12072;SDS011;6098;49.004;8.372;2023-05-16T02:31:43;28.44;;;19.27;;
12072;SDS011;6098;49.004;8.372;2023-05-16T02:46:36;26.59;;;19.37;;
12072;SDS011;6098;49.004;8.372;2023-05-16T03:01:28;29.98;;;19.58;;
12072;SDS011;6098;49.004;8.372;2023-05-16T03:16:22;26.49;;;18.64;;
12072;SDS011;6098;49.004;8.372;2023-05-16T03:31:14;28.07;;;18.90;;
12072;SDS011;6098;49.004;8.372;2023-05-16T03:46:22;28.06;;;17.70;;
12072;SDS011;6098;49.004;8.372;2023-05-16T04:01:09;25.78;;;17.02;;
12072;SDS011;6098;49.004;8.372;2023-05-16T04:16:01;22.94;;;15.67;;
12072;SDS011;6098;49.004;8.372;2023-05-16T04:30:53;21.89;;;14.70;;
12072;SDS011;6098;49.004;8.372;2023-05-16T04:45:45;19.44;;;14.13;;
12072;SDS011;6098;49.004;8.372;2023-05-16T05:00:40;21.14;;;13.49;;
12072;SDS011;6098;49.004;8.372;2023-05-16T05:15:29;21.04;;;13.28;;
12072;SDS011;6098;49.004;8.372;2023-05-16T05:30:21;19.77;;;12.57;;
12072;SDS011;6098;49.004;8.372;2023-05-16T05:45:14;18.68;;;12.07;;
12072;SDS011;6098;49.004;8.372;2023-05-16T06:00:05;16.37;;;10.72;;
12072;SDS011;6098;49.004;8.372;2023-05-16T06:14:58;15.80;;;9.18;;
12072;SDS011;6098;49.004;8.372;2023-05-16T06:29:49;8.22;;;6.22;;
12072;SDS011;6098;49.004;8.372;2023-05-16T06:44:42;5.11;;;3.84;;
12072;SDS011;6098;49.004;8.372;2023-05-16T06:59:33;6.20;;;3.38;;
12072;SDS011;6098;49.004;8.372;2023-05-16T07:14:24;3.92;;;2.47;;
12072;SDS011;6098;49.004;8.372;2023-05-16T07:29:15;1.53;;;1.31;;
12072;SDS011;6098;49.004;8.372;2023-05-16T07:44:08;2.04;;;1.19;;
12072;SDS011;6098;49.004;8.372;2023-05-16T07:58:59;1.87;;;1.10;;
12072;SDS011;6098;49.004;8.372;2023-05-16T08:28:54;2.89;;;1.12;;
12072;SDS011;6098;49.004;8.372;2023-05-16T08:43:46;1.73;;;1.34;;
12072;SDS011;6098;49.004;8.372;2023-05-16T08:58:37;3.78;;;1.37;;
12072;SDS011;6098;49.004;8.372;2023-05-16T09:13:29;2.23;;;1.51;;
12072;SDS011;6098;49.004;8.372;2023-05-16T09:28:22;1.40;;;1.30;;
12072;SDS011;6098;49.004;8.372;2023-05-16T09:43:15;1.18;;;1.08;;
12072;SDS011;6098;49.004;8.372;2023-05-16T09:58:06;1.30;;;1.20;;
12072;SDS011;6098;49.004;8.372;2023-05-16T10:13:00;3.18;;;1.00;;
12072;SDS011;6098;49.004;8.372;2023-05-16T10:27:54;2.03;;;1.28;;
12072;SDS011;6098;49.004;8.372;2023-05-16T10:42:58;1.19;;;0.90;;
12072;SDS011;6098;49.004;8.372;2023-05-16T10:57:53;1.31;;;1.00;;
12072;SDS011;6098;49.004;8.372;2023-05-16T11:12:47;2.60;;;0.98;;
12072;SDS011;6098;49.004;8.372;2023-05-16T11:27:42;1.46;;;0.83;;
12072;SDS011;6098;49.004;8.372;2023-05-16T11:42:41;1.69;;;0.90;;
12072;SDS011;6098;49.004;8.372;2023-05-16T11:57:31;1.19;;;0.89;;
12072;SDS011;6098;49.004;8.372;2023-05-16T12:12:23;2.18;;;0.80;;
12072;SDS011;6098;49.004;8.372;2023-05-16T12:27:21;2.97;;;1.23;;
12072;SDS011;6098;49.004;8.372;2023-05-16T12:42:15;2.23;;;1.32;;
12072;SDS011;6098;49.004;8.372;2023-05-16T12:57:07;2.22;;;1.79;;
12072;SDS011;6098;49.004;8.372;2023-05-16T13:12:00;5.04;;;2.06;;
12072;SDS011;6098;49.004;8.372;2023-05-16T13:26:52;4.27;;;1.70;;
12072;SDS011;6098;49.004;8.372;2023-05-16T13:41:44;4.70;;;1.90;;
12072;SDS011;6098;49.004;8.372;2023-05-16T13:56:35;5.39;;;1.67;;
12072;SDS011;6098;49.004;8.372;2023-05-16T14:11:28;6.36;;;1.68;;
12072;SDS011;6098;49.004;8.372;2023-05-16T14:26:22;5.53;;;1.71;;
12072;SDS011;6098;49.004;8.372;2023-05-16T14:41:15;3.43;;;1.50;;
12072;SDS011;6098;49.004;8.372;2023-05-16T14:56:07;2.92;;;1.10;;
12072;SDS011;6098;49.004;8.372;2023-05-16T15:11:00;4.00;;;1.49;;
12072;SDS011;6098;49.004;8.372;2023-05-16T15:25:52;3.33;;;1.77;;
12072;SDS011;6098;49.004;8.372;2023-05-16T15:40:47;3.49;;;1.38;;
12072;SDS011;6098;49.004;8.372;2023-05-16T15:55:48;4.88;;;1.69;;
12072;SDS011;6098;49.004;8.372;2023-05-16T16:10:41;4.08;;;1.48;;
12072;SDS011;6098;49.004;8.372;2023-05-16T16:25:34;5.32;;;1.48;;
12072;SDS011;6098;49.004;8.372;2023-05-16T16:40:25;2.91;;;1.20;;
12072;SDS011;6098;49.004;8.372;2023-05-16T16:55:19;2.52;;;1.10;;
12072;SDS011;6098;49.004;8.372;2023-05-16T17:10:12;3.54;;;1.21;;
12072;SDS011;6098;49.004;8.372;2023-05-16T17:25:02;2.29;;;1.00;;
12072;SDS011;6098;49.004;8.372;2023-05-16T17:39:55;6.36;;;3.39;;
12072;SDS011;6098;49.004;8.372;2023-05-16T17:54:48;3.20;;;1.00;;
12072;SDS011;6098;49.004;8.372;2023-05-16T18:09:37;6.84;;;1.19;;
12072;SDS011;6098;49.004;8.372;2023-05-16T18:24:28;2.99;;;1.13;;
12072;SDS011;6098;49.004;8.372;2023-05-16T18:39:22;3.08;;;1.27;;
12072;SDS011;6098;49.004;8.372;2023-05-16T18:54:13;4.19;;;1.38;;
12072;SDS011;6098;49.004;8.372;2023-05-16T19:09:05;3.98;;;1.32;;
12072;SDS011;6098;49.004;8.372;2023-05-16T19:23:57;3.81;;;1.10;;
12072;SDS011;6098;49.004;8.372;2023-05-16T19:38:47;3.50;;;1.20;;
12072;SDS011;6098;49.004;8.372;2023-05-16T19:53:40;1.93;;;0.92;;
12072;SDS011;6098;49.004;8.372;2023-05-16T20:08:32;4.87;;;1.27;;
12072;SDS011;6098;49.004;8.372;2023-05-16T20:23:24;2.66;;;1.44;;
12072;SDS011;6098;49.004;8.372;2023-05-16T20:38:17;2.73;;;1.09;;
12072;SDS011;6098;49.004;8.372;2023-05-16T20:53:07;2.91;;;1.02;;
12072;SDS011;6098;49.004;8.372;2023-05-16T21:07:59;4.62;;;1.13;;
12072;SDS011;6098;49.004;8.372;2023-05-16T21:22:54;3.40;;;1.29;;
12072;SDS011;6098;49.004;8.372;2023-05-16T21:37:44;2.23;;;1.14;;
12072;SDS011;6098;49.004;8.372;2023-05-16T21:52:36;2.06;;;0.97;;
12072;SDS011;6098;49.004;8.372;2023-05-16T22:07:29;3.37;;;1.19;;
12072;SDS011;6098;49.004;8.372;2023-05-16T22:22:20;3.60;;;1.40;;
12072;SDS011;6098;49.004;8.372;2023-05-16T22:37:10;3.29;;;1.24;;
12072;SDS011;6098;49.004;8.372;2023-05-16T22:52:01;3.03;;;1.10;;
12072;SDS011;6098;49.004;8.372;2023-05-16T23:06:52;4.16;;;1.20;;
12072;SDS011;6098;49.004;8.372;2023-05-16T23:21:43;1.96;;;1.24;;
12072;SDS011;6098;49.004;8.372;2023-05-16T23:36:34;6.27;;;1.51;;
12072;SDS011;6098;49.004;8.372;2023-05-16T23:51:25;4.44;;;1.42;;
